Terminal Aerodrome Forecast
Issued by NWS Caribou, ME

Home | Current Version | Previous Version | Text Only | Print | Product List | Glossary On
Versions: 1 2 3 4 5 6 7 8 9 10 11 12 13 14 15 16 17 18 19 20
000
FTUS41 KCAR 271120
TAFCAR
TAF
KCAR 271120Z 2712/2812 15010KT P6SM OVC012
     FM271500 15011KT P6SM OVC015
     FM272100 17010KT P6SM BKN050
     FM280300 19006KT P6SM BKN008
     FM280900 27005KT P6SM BKN015=

USA.gov is the U.S. government's official web portal to all federal, state and local government web resources and services.